Time;durP1;ratioP1;P1;durP2;ratioP2;P2;SDS_P1;SDS_P2;PMS_P1;PMS_P2;Temp;Humidity;BMP_temperature;BMP_pressure;BME280_temperature;BME280_humidity;BME280_pressure;Samples;Min_cycle;Max_cycle;Signal;HPM_P1;HPM_P2
2021/06/08 00:02:25;;;;;;;27.13;18.83;;;;;;;;;;5004571;28;20202;-58
2021/06/08 00:04:55;;;;;;;26.63;18.97;;;;;;;;;;5008675;28;20222;-57
2021/06/08 00:07:25;;;;;;;22.77;16.97;;;;;;;;;;5008698;28;20242;-57
2021/06/08 00:09:52;;;;;;;22.50;17.67;;;;;;;;;;5004759;28;20220;-57
2021/06/08 00:12:20;;;;;;;27.27;19.03;;;;;;;;;;4990138;28;20201;-57
2021/06/08 00:14:46;;;;;;;32.97;22.67;;;;;;;;;;5011236;28;20191;-58
2021/06/08 00:17:13;;;;;;;28.17;19.63;;;;;;;;;;4987889;28;20199;-57
2021/06/08 00:19:43;;;;;;;27.47;19.20;;;;;;;;;;4997167;28;20335;-57
2021/06/08 00:22:15;;;;;;;27.73;20.03;;;;;;;;;;5005885;28;20674;-58
2021/06/08 00:24:43;;;;;;;31.37;21.77;;;;;;;;;;5006652;28;20268;-57
2021/06/08 00:27:08;;;;;;;28.47;21.07;;;;;;;;;;4989790;28;20848;-57
2021/06/08 00:29:34;;;;;;;30.63;21.37;;;;;;;;;;4999739;28;20268;-57
2021/06/08 00:32:04;;;;;;;29.23;20.73;;;;;;;;;;5007397;28;20183;-57
2021/06/08 00:34:29;;;;;;;33.10;20.80;;;;;;;;;;5000750;28;20707;-56
2021/06/08 00:36:54;;;;;;;31.00;20.90;;;;;;;;;;4989840;28;20211;-57
2021/06/08 00:39:24;;;;;;;30.87;21.30;;;;;;;;;;5002727;28;20223;-56
2021/06/08 00:41:49;;;;;;;42.37;27.53;;;;;;;;;;5004728;28;20194;-57
2021/06/08 00:44:20;;;;;;;45.40;30.37;;;;;;;;;;5002303;28;20187;-57
2021/06/08 00:46:47;;;;;;;37.23;27.93;;;;;;;;;;4988888;28;20214;-57
2021/06/08 00:49:13;;;;;;;42.70;27.80;;;;;;;;;;5007321;28;20277;-57
2021/06/08 00:51:43;;;;;;;34.87;25.53;;;;;;;;;;5006326;28;20610;-57
2021/06/08 00:54:10;;;;;;;34.30;24.77;;;;;;;;;;5004674;28;20662;-58
2021/06/08 00:56:40;;;;;;;30.30;23.43;;;;;;;;;;5003524;28;20211;-57
2021/06/08 00:59:11;;;;;;;35.30;24.60;;;;;;;;;;5005544;28;20195;-57
2021/06/08 01:01:37;;;;;;;26.80;21.63;;;;;;;;;;5006370;28;20191;-57
2021/06/08 01:04:07;;;;;;;22.40;18.47;;;;;;;;;;5005382;28;20180;-57
2021/06/08 01:06:33;;;;;;;28.33;21.33;;;;;;;;;;5006773;28;20211;-57
2021/06/08 01:08:59;;;;;;;28.50;21.63;;;;;;;;;;5008584;28;20191;-57
2021/06/08 01:11:31;;;;;;;30.80;22.50;;;;;;;;;;5004481;28;20563;-57
2021/06/08 01:14:01;;;;;;;38.53;28.20;;;;;;;;;;4985727;28;20254;-57
2021/06/08 01:16:29;;;;;;;34.80;27.33;;;;;;;;;;4988085;28;20208;-57
2021/06/08 01:18:57;;;;;;;30.83;25.17;;;;;;;;;;5012234;28;20246;-57
2021/06/08 01:21:27;;;;;;;31.40;23.17;;;;;;;;;;4991731;28;20239;-58
2021/06/08 01:23:55;;;;;;;30.27;24.53;;;;;;;;;;5008677;28;20298;-57
2021/06/08 01:26:27;;;;;;;45.70;23.43;;;;;;;;;;4989929;28;20195;-57
2021/06/08 01:28:56;;;;;;;30.90;21.37;;;;;;;;;;5010601;28;20249;-57
2021/06/08 01:31:25;;;;;;;39.23;23.03;;;;;;;;;;5011385;28;20180;-57
2021/06/08 01:33:50;;;;;;;58.07;29.77;;;;;;;;;;5009973;28;20215;-57
2021/06/08 01:36:22;;;;;;;45.57;28.90;;;;;;;;;;4992342;28;20306;-57
2021/06/08 01:38:51;;;;;;;59.83;30.50;;;;;;;;;;4985247;28;20206;-58
2021/06/08 01:41:25;;;;;;;39.90;24.80;;;;;;;;;;4995698;28;20413;-58
2021/06/08 01:43:57;;;;;;;28.97;23.50;;;;;;;;;;4990808;28;20178;-57
2021/06/08 01:46:25;;;;;;;39.03;28.20;;;;;;;;;;5004094;28;20584;-57
2021/06/08 01:48:52;;;;;;;29.80;21.93;;;;;;;;;;5002092;28;20274;-57
2021/06/08 01:51:40;;;;;;;29.10;22.27;;;;;;;;;;5001726;28;20194;-57
2021/06/08 01:54:20;;;;;;;38.77;26.20;;;;;;;;;;4989109;28;20187;-57
2021/06/08 01:56:51;;;;;;;30.67;23.20;;;;;;;;;;5005540;28;20687;-59
2021/06/08 01:59:32;;;;;;;30.07;21.63;;;;;;;;;;5008190;28;20198;-57
2021/06/08 02:02:06;;;;;;;25.57;20.17;;;;;;;;;;5008466;28;20218;-57
2021/06/08 02:05:01;;;;;;;32.60;23.63;;;;;;;;;;5005696;28;20223;-58
2021/06/08 02:07:43;;;;;;;24.37;18.23;;;;;;;;;;4991315;28;20250;-57
2021/06/08 02:10:49;;;;;;;24.57;16.97;;;;;;;;;;5003564;28;20722;-57
2021/06/08 02:13:28;;;;;;;26.53;17.90;;;;;;;;;;4964686;28;20625;-57
2021/06/08 02:16:04;;;;;;;24.70;17.83;;;;;;;;;;5007932;28;20215;-57
2021/06/08 02:18:33;;;;;;;21.60;16.83;;;;;;;;;;5003543;28;20218;-57
2021/06/08 02:21:01;;;;;;;22.57;17.13;;;;;;;;;;4992417;28;20635;-58
2021/06/08 02:23:31;;;;;;;21.73;16.33;;;;;;;;;;5005490;28;20215;-57
2021/06/08 02:25:59;;;;;;;30.77;22.93;;;;;;;;;;5009180;28;20211;-57
2021/06/08 02:28:32;;;;;;;23.60;19.63;;;;;;;;;;4998596;28;20731;-56
2021/06/08 02:31:02;;;;;;;21.57;17.70;;;;;;;;;;5004208;28;20280;-57
2021/06/08 02:33:31;;;;;;;23.07;18.13;;;;;;;;;;5002369;28;20188;-57
2021/06/08 02:36:04;;;;;;;23.43;18.20;;;;;;;;;;5006483;28;20207;-57
2021/06/08 02:38:33;;;;;;;27.70;17.77;;;;;;;;;;5009165;28;20234;-58
2021/06/08 02:41:03;;;;;;;23.80;16.90;;;;;;;;;;4988308;28;20659;-58
2021/06/08 02:43:32;;;;;;;24.73;18.40;;;;;;;;;;5007764;28;20755;-57
2021/06/08 02:46:01;;;;;;;17.27;15.33;;;;;;;;;;5004985;28;20247;-57
2021/06/08 02:48:32;;;;;;;27.37;21.57;;;;;;;;;;4988132;28;20206;-57
2021/06/08 02:51:00;;;;;;;36.90;20.43;;;;;;;;;;5007056;28;20568;-57
2021/06/08 02:53:26;;;;;;;22.23;18.17;;;;;;;;;;4986549;28;20213;-57
2021/06/08 02:55:52;;;;;;;22.83;18.07;;;;;;;;;;5008922;28;20242;-57
2021/06/08 02:58:21;;;;;;;19.67;16.73;;;;;;;;;;4991779;28;20195;-57
2021/06/08 03:00:47;;;;;;;22.00;16.87;;;;;;;;;;4987415;28;20576;-58
2021/06/08 03:03:17;;;;;;;19.07;16.97;;;;;;;;;;5006740;28;20313;-57
2021/06/08 03:05:49;;;;;;;20.30;15.97;;;;;;;;;;4988094;28;20207;-57
2021/06/08 03:08:41;;;;;;;20.17;15.20;;;;;;;;;;4999710;28;20183;-57
2021/06/08 03:11:15;;;;;;;20.33;16.53;;;;;;;;;;5007603;28;20182;-58
2021/06/08 03:13:41;;;;;;;21.03;17.50;;;;;;;;;;5008213;28;20329;-57
2021/06/08 03:16:11;;;;;;;34.80;20.77;;;;;;;;;;5007177;28;20681;-57
2021/06/08 03:18:42;;;;;;;38.07;26.67;;;;;;;;;;4982370;28;20218;-57
2021/06/08 03:21:13;;;;;;;41.40;28.53;;;;;;;;;;5002057;28;20225;-57
2021/06/08 03:23:49;;;;;;;37.50;26.77;;;;;;;;;;5008129;28;20254;-57
2021/06/08 03:26:18;;;;;;;25.80;20.03;;;;;;;;;;4988051;28;20337;-56
2021/06/08 03:28:49;;;;;;;23.53;17.87;;;;;;;;;;5001355;28;20357;-57
2021/06/08 03:31:18;;;;;;;32.30;27.30;;;;;;;;;;5003992;28;20187;-57
2021/06/08 03:33:46;;;;;;;37.30;24.87;;;;;;;;;;4983327;28;20199;-58
2021/06/08 03:36:13;;;;;;;38.23;26.93;;;;;;;;;;4998874;28;20208;-57
2021/06/08 03:38:40;;;;;;;36.87;25.87;;;;;;;;;;5009027;28;20874;-58
2021/06/08 03:41:11;;;;;;;37.93;29.67;;;;;;;;;;5003425;28;20326;-57
2021/06/08 03:43:42;;;;;;;41.00;29.90;;;;;;;;;;5006665;28;20191;-58
2021/06/08 03:46:10;;;;;;;42.87;28.87;;;;;;;;;;5000613;28;20280;-57
2021/06/08 03:48:40;;;;;;;41.17;29.43;;;;;;;;;;4984750;28;20247;-57
2021/06/08 03:51:08;;;;;;;48.27;33.93;;;;;;;;;;5005626;28;20194;-57
2021/06/08 03:53:40;;;;;;;44.33;35.77;;;;;;;;;;5001629;28;20196;-58
2021/06/08 03:56:11;;;;;;;48.07;37.03;;;;;;;;;;5006863;28;20218;-57
2021/06/08 03:58:42;;;;;;;43.80;34.30;;;;;;;;;;5005366;28;20198;-57
2021/06/08 04:01:10;;;;;;;48.70;34.90;;;;;;;;;;4996972;28;20334;-57
2021/06/08 04:03:39;;;;;;;47.97;34.07;;;;;;;;;;5001495;28;20829;-58
2021/06/08 04:06:09;;;;;;;47.67;36.07;;;;;;;;;;4997957;28;20286;-58
2021/06/08 04:08:37;;;;;;;48.03;36.30;;;;;;;;;;5007037;28;20199;-58
2021/06/08 04:11:04;;;;;;;47.93;34.17;;;;;;;;;;5003793;28;20179;-57
2021/06/08 04:13:32;;;;;;;44.73;34.70;;;;;;;;;;4988784;28;20190;-57
2021/06/08 04:16:00;;;;;;;46.30;35.47;;;;;;;;;;5006504;28;20214;-57
2021/06/08 04:18:31;;;;;;;41.73;34.27;;;;;;;;;;5004859;28;20249;-57
2021/06/08 04:20:59;;;;;;;46.50;33.80;;;;;;;;;;4988567;28;20186;-57
2021/06/08 04:23:27;;;;;;;46.10;35.57;;;;;;;;;;5005940;28;20230;-57
2021/06/08 04:25:55;;;;;;;43.23;33.77;;;;;;;;;;5000106;28;20214;-58
2021/06/08 04:28:21;;;;;;;39.77;32.60;;;;;;;;;;5006841;28;20233;-58
2021/06/08 04:30:48;;;;;;;49.43;36.60;;;;;;;;;;4986192;28;20666;-58
2021/06/08 04:33:14;;;;;;;42.05;32.70;;;;;;;;;;5007926;28;20721;-58
2021/06/08 04:35:42;;;;;;;46.57;36.73;;;;;;;;;;4999728;28;20215;-58
2021/06/08 04:38:07;;;;;;;52.17;38.15;;;;;;;;;;5005944;28;20710;-58
2021/06/08 04:40:36;;;;;;;47.53;37.40;;;;;;;;;;5006456;28;20207;-58
2021/06/08 04:43:06;;;;;;;43.50;35.38;;;;;;;;;;5006183;28;20187;-57
2021/06/08 04:45:34;;;;;;;45.05;36.28;;;;;;;;;;4998869;28;20219;-57
2021/06/08 04:47:59;;;;;;;47.30;37.47;;;;;;;;;;5004056;28;20257;-57
2021/06/08 04:50:24;;;;;;;47.80;37.17;;;;;;;;;;5004975;28;20183;-57
2021/06/08 04:52:56;;;;;;;44.73;36.07;;;;;;;;;;4989015;28;20187;-57
2021/06/08 04:55:26;;;;;;;52.50;36.53;;;;;;;;;;5009302;28;20194;-57
2021/06/08 04:57:56;;;;;;;45.35;35.63;;;;;;;;;;5006561;28;20207;-57
2021/06/08 05:00:50;;;;;;;43.80;35.70;;;;;;;;;;4989319;28;20239;-56
2021/06/08 05:03:23;;;;;;;42.20;33.88;;;;;;;;;;5009014;28;20207;-58
2021/06/08 05:05:52;;;;;;;39.85;33.00;;;;;;;;;;5010911;28;20717;-58
2021/06/08 05:08:24;;;;;;;38.73;31.63;;;;;;;;;;5009281;28;20682;-57
2021/06/08 05:11:03;;;;;;;41.45;32.28;;;;;;;;;;4987512;28;20180;-58
2021/06/08 05:13:30;;;;;;;39.50;32.67;;;;;;;;;;5005528;28;21399;-57
2021/06/08 05:15:59;;;;;;;40.47;30.27;;;;;;;;;;4990024;28;20782;-58
2021/06/08 05:18:27;;;;;;;40.27;31.70;;;;;;;;;;5007979;28;20576;-58
2021/06/08 05:20:53;;;;;;;46.30;31.87;;;;;;;;;;5003559;28;20188;-58
2021/06/08 05:23:20;;;;;;;36.43;31.00;;;;;;;;;;5009251;28;20199;-58
2021/06/08 05:25:51;;;;;;;38.60;31.80;;;;;;;;;;5008898;28;20674;-58
2021/06/08 05:28:17;;;;;;;40.60;30.90;;;;;;;;;;4989260;28;20195;-58
2021/06/08 05:30:44;;;;;;;37.70;30.57;;;;;;;;;;5011149;28;20184;-57
2021/06/08 05:33:12;;;;;;;33.60;27.40;;;;;;;;;;4988857;28;20203;-58
2021/06/08 05:35:42;;;;;;;35.28;27.15;;;;;;;;;;5006567;28;20274;-57
2021/06/08 05:38:10;;;;;;;31.65;24.88;;;;;;;;;;4999217;28;20210;-58
2021/06/08 05:40:39;;;;;;;30.17;25.05;;;;;;;;;;5002803;28;20196;-57
2021/06/08 05:43:05;;;;;;;28.60;23.98;;;;;;;;;;5010773;28;20558;-58
2021/06/08 05:45:34;;;;;;;29.17;23.92;;;;;;;;;;5007974;28;20212;-59
2021/06/08 05:48:04;;;;;;;28.77;23.90;;;;;;;;;;5006732;28;20237;-58
2021/06/08 05:50:29;;;;;;;33.53;25.33;;;;;;;;;;4987087;28;20615;-57
2021/06/08 05:52:59;;;;;;;32.00;26.50;;;;;;;;;;5001295;28;20188;-58
2021/06/08 05:55:29;;;;;;;35.08;25.73;;;;;;;;;;5004239;28;20273;-59
2021/06/08 05:57:59;;;;;;;34.05;27.52;;;;;;;;;;4983510;28;20196;-58
2021/06/08 06:00:29;;;;;;;32.83;26.27;;;;;;;;;;4985331;28;20237;-58
2021/06/08 06:02:55;;;;;;;38.90;25.77;;;;;;;;;;5003773;28;20783;-58
2021/06/08 06:05:21;;;;;;;36.13;26.08;;;;;;;;;;5002425;28;20205;-57
2021/06/08 06:07:47;;;;;;;30.25;25.80;;;;;;;;;;5012272;28;20187;-57
2021/06/08 06:10:16;;;;;;;30.25;25.90;;;;;;;;;;5010170;28;20249;-57
2021/06/08 06:12:49;;;;;;;32.30;26.52;;;;;;;;;;5008178;28;20633;-57
2021/06/08 06:15:16;;;;;;;29.88;26.30;;;;;;;;;;4989460;28;20610;-57
2021/06/08 06:17:42;;;;;;;32.30;27.05;;;;;;;;;;5002948;28;20576;-56
2021/06/08 06:20:14;;;;;;;29.60;25.75;;;;;;;;;;5000275;28;20183;-57
2021/06/08 06:22:41;;;;;;;30.45;27.25;;;;;;;;;;5007331;28;20768;-57
2021/06/08 06:25:11;;;;;;;30.75;26.92;;;;;;;;;;5013240;28;20277;-57
2021/06/08 06:27:39;;;;;;;31.52;27.30;;;;;;;;;;4991003;28;20179;-58
2021/06/08 06:30:10;;;;;;;30.90;27.33;;;;;;;;;;4990277;28;20192;-55
2021/06/08 06:32:37;;;;;;;31.75;25.70;;;;;;;;;;5007440;28;20188;-56
2021/06/08 06:35:05;;;;;;;31.02;27.27;;;;;;;;;;5006352;28;20552;-57
2021/06/08 06:37:31;;;;;;;31.15;26.98;;;;;;;;;;5006384;28;20207;-56
2021/06/08 06:40:00;;;;;;;29.75;26.52;;;;;;;;;;5010048;28;20328;-57
2021/06/08 06:42:32;;;;;;;34.15;27.30;;;;;;;;;;5009347;28;20655;-56
2021/06/08 06:45:03;;;;;;;36.92;29.10;;;;;;;;;;4992883;28;20728;-57
2021/06/08 06:47:31;;;;;;;39.28;31.58;;;;;;;;;;5002594;28;20192;-57
2021/06/08 06:49:56;;;;;;;41.90;32.97;;;;;;;;;;5001805;28;20251;-56
2021/06/08 06:52:22;;;;;;;35.58;30.58;;;;;;;;;;5007421;28;20219;-56
2021/06/08 06:54:48;;;;;;;34.63;29.08;;;;;;;;;;4994575;28;20219;-57
2021/06/08 06:57:13;;;;;;;35.33;30.05;;;;;;;;;;4991707;28;20670;-58
2021/06/08 06:59:41;;;;;;;44.72;35.95;;;;;;;;;;5008821;28;20218;-56
2021/06/08 07:02:15;;;;;;;41.25;33.13;;;;;;;;;;5006764;28;20214;-56
2021/06/08 07:04:43;;;;;;;42.75;32.38;;;;;;;;;;5004846;28;20193;-56
2021/06/08 07:07:16;;;;;;;43.45;33.08;;;;;;;;;;5008646;28;20200;-56
2021/06/08 07:09:42;;;;;;;34.60;30.35;;;;;;;;;;5001703;28;20175;-57
2021/06/08 07:12:10;;;;;;;37.67;31.38;;;;;;;;;;5004180;28;20292;-57
2021/06/08 07:14:39;;;;;;;38.55;33.13;;;;;;;;;;5006397;28;20202;-57
2021/06/08 07:17:09;;;;;;;42.97;34.17;;;;;;;;;;5004005;28;20218;-57
2021/06/08 07:19:35;;;;;;;36.92;31.23;;;;;;;;;;5012084;28;20219;-57
2021/06/08 07:22:03;;;;;;;37.45;32.20;;;;;;;;;;5007586;28;20645;-57
2021/06/08 07:24:33;;;;;;;38.47;31.50;;;;;;;;;;4999646;28;20298;-57
2021/06/08 07:27:01;;;;;;;35.78;30.88;;;;;;;;;;4988630;28;20200;-57
2021/06/08 07:29:29;;;;;;;35.72;31.65;;;;;;;;;;4983061;28;20196;-56
2021/06/08 07:32:02;;;;;;;31.27;26.63;;;;;;;;;;5003568;28;20290;-58
2021/06/08 07:34:36;;;;;;;30.70;26.30;;;;;;;;;;5000410;28;20191;-57
2021/06/08 07:37:07;;;;;;;32.78;25.88;;;;;;;;;;4991266;28;20273;-57
2021/06/08 07:39:47;;;;;;;31.48;26.65;;;;;;;;;;4999523;28;20202;-57
2021/06/08 07:42:17;;;;;;;28.17;25.17;;;;;;;;;;5006173;28;20310;-57
2021/06/08 07:44:56;;;;;;;31.02;27.58;;;;;;;;;;5006731;28;20190;-56
2021/06/08 07:47:24;;;;;;;29.50;24.95;;;;;;;;;;5000956;28;20206;-58
2021/06/08 07:49:54;;;;;;;29.67;26.48;;;;;;;;;;4992461;28;20654;-58
2021/06/08 07:52:23;;;;;;;28.48;25.30;;;;;;;;;;5004891;28;20231;-56
2021/06/08 07:54:52;;;;;;;30.25;25.38;;;;;;;;;;5000661;28;20566;-57
2021/06/08 07:57:19;;;;;;;29.63;26.63;;;;;;;;;;5000424;28;20268;-56
2021/06/08 07:59:47;;;;;;;31.23;27.75;;;;;;;;;;4986912;28;20199;-57
2021/06/08 08:02:17;;;;;;;30.10;26.00;;;;;;;;;;5003239;28;20184;-57
2021/06/08 08:04:49;;;;;;;33.00;29.30;;;;;;;;;;5003613;28;20199;-57
2021/06/08 08:07:21;;;;;;;29.50;26.40;;;;;;;;;;5006271;28;20284;-58
2021/06/08 08:09:47;;;;;;;34.83;27.50;;;;;;;;;;4987619;28;20226;-58
2021/06/08 08:12:14;;;;;;;35.88;30.23;;;;;;;;;;5000897;28;20780;-57
2021/06/08 08:14:46;;;;;;;36.38;29.70;;;;;;;;;;4989509;28;20183;-56
2021/06/08 08:17:18;;;;;;;31.30;26.95;;;;;;;;;;5006243;28;20238;-57
2021/06/08 08:19:44;;;;;;;30.38;27.20;;;;;;;;;;5007099;28;20202;-56
2021/06/08 08:22:09;;;;;;;29.70;26.20;;;;;;;;;;5002052;28;20270;-57
2021/06/08 08:24:37;;;;;;;31.45;26.50;;;;;;;;;;5008402;28;20186;-57
2021/06/08 08:27:05;;;;;;;28.23;25.17;;;;;;;;;;5008991;28;20299;-58
2021/06/08 08:29:33;;;;;;;28.80;25.70;;;;;;;;;;5005077;28;20616;-56
2021/06/08 08:32:03;;;;;;;34.03;25.45;;;;;;;;;;4980623;28;20564;-55
2021/06/08 08:34:33;;;;;;;26.88;23.98;;;;;;;;;;5006508;28;20717;-57
2021/06/08 08:36:59;;;;;;;28.20;25.17;;;;;;;;;;4988117;28;20228;-58
2021/06/08 08:39:29;;;;;;;26.48;23.48;;;;;;;;;;5008551;28;20235;-55
2021/06/08 08:41:56;;;;;;;27.52;24.08;;;;;;;;;;5006670;28;20265;-57
2021/06/08 08:44:24;;;;;;;25.55;22.88;;;;;;;;;;5005578;28;20683;-57
2021/06/08 08:46:55;;;;;;;30.38;25.17;;;;;;;;;;5002172;28;20643;-57
2021/06/08 08:49:20;;;;;;;26.80;23.77;;;;;;;;;;5000376;28;20187;-57
2021/06/08 08:51:50;;;;;;;26.17;23.38;;;;;;;;;;5006413;28;20190;-56
2021/06/08 08:54:20;;;;;;;27.00;24.15;;;;;;;;;;5005381;28;20189;-57
2021/06/08 08:56:46;;;;;;;29.98;26.80;;;;;;;;;;5000280;28;20222;-58
2021/06/08 08:59:14;;;;;;;29.67;26.52;;;;;;;;;;4989770;28;20191;-55
2021/06/08 09:01:42;;;;;;;28.30;25.23;;;;;;;;;;4986050;28;20187;-56
2021/06/08 09:04:09;;;;;;;27.80;24.88;;;;;;;;;;4984788;28;20612;-57
2021/06/08 09:06:36;;;;;;;29.00;26.00;;;;;;;;;;5005008;28;20602;-56
2021/06/08 09:09:09;;;;;;;30.08;26.98;;;;;;;;;;5005341;28;20264;-57
2021/06/08 09:11:37;;;;;;;28.83;25.83;;;;;;;;;;5001976;28;20198;-56
2021/06/08 09:14:03;;;;;;;28.42;25.42;;;;;;;;;;5005348;28;20310;-57
2021/06/08 09:16:29;;;;;;;27.70;24.77;;;;;;;;;;4983512;28;20218;-57
2021/06/08 09:18:55;;;;;;;28.83;25.05;;;;;;;;;;5004069;28;20278;-58
2021/06/08 09:21:28;;;;;;;28.95;25.85;;;;;;;;;;5003925;28;20334;-57
2021/06/08 09:24:29;;;;;;;27.67;24.80;;;;;;;;;;5005282;28;20202;-57
2021/06/08 09:27:09;;;;;;;30.73;25.52;;;;;;;;;;4988763;28;20294;-57
2021/06/08 09:29:36;;;;;;;28.80;25.77;;;;;;;;;;5009321;28;20202;-57
2021/06/08 09:32:24;;;;;;;25.60;23.00;;;;;;;;;;5006478;28;20183;-57
2021/06/08 09:34:51;;;;;;;28.65;25.13;;;;;;;;;;5005915;28;20914;-57
2021/06/08 09:37:31;;;;;;;27.25;24.50;;;;;;;;;;5006177;28;20219;-57
2021/06/08 09:40:01;;;;;;;27.33;24.17;;;;;;;;;;4991226;28;20278;-57
2021/06/08 09:42:32;;;;;;;28.55;25.65;;;;;;;;;;5004189;28;20574;-57
2021/06/08 09:45:15;;;;;;;25.58;22.95;;;;;;;;;;5004476;28;20183;-57
2021/06/08 09:47:44;;;;;;;27.50;24.67;;;;;;;;;;5006191;28;20187;-56
2021/06/08 09:50:38;;;;;;;28.77;25.75;;;;;;;;;;5000546;28;20238;-57
2021/06/08 09:53:28;;;;;;;26.88;24.08;;;;;;;;;;5005492;28;20643;-57
2021/06/08 09:56:02;;;;;;;26.70;23.90;;;;;;;;;;5008958;28;20217;-58
2021/06/08 09:58:31;;;;;;;28.17;22.77;;;;;;;;;;5005475;28;20286;-57
2021/06/08 10:01:19;;;;;;;26.70;23.88;;;;;;;;;;5009577;28;20187;-57
2021/06/08 10:04:04;;;;;;;25.90;23.25;;;;;;;;;;5004086;28;20198;-57
2021/06/08 10:06:40;;;;;;;27.25;24.42;;;;;;;;;;4992208;28;20207;-57
2021/06/08 10:09:11;;;;;;;26.05;23.45;;;;;;;;;;4986655;28;20190;-57
2021/06/08 10:11:40;;;;;;;27.63;24.67;;;;;;;;;;5003807;28;20661;-58
2021/06/08 10:14:11;;;;;;;26.77;24.10;;;;;;;;;;4983155;28;20658;-57
2021/06/08 10:16:37;;;;;;;26.98;24.08;;;;;;;;;;4989174;28;20234;-58
2021/06/08 10:19:06;;;;;;;26.20;23.58;;;;;;;;;;5008392;28;20534;-57
2021/06/08 10:21:37;;;;;;;26.88;24.15;;;;;;;;;;5008323;28;20192;-57
2021/06/08 10:24:15;;;;;;;27.10;24.42;;;;;;;;;;5006127;28;20191;-58
2021/06/08 10:26:47;;;;;;;27.15;24.55;;;;;;;;;;4985629;28;20206;-59
2021/06/08 10:29:15;;;;;;;27.02;24.45;;;;;;;;;;5004387;28;20790;-58
2021/06/08 10:31:44;;;;;;;27.45;24.70;;;;;;;;;;5009049;28;20193;-58
2021/06/08 10:34:12;;;;;;;28.40;25.45;;;;;;;;;;4975147;28;20270;-57
2021/06/08 10:36:43;;;;;;;25.90;23.40;;;;;;;;;;5007807;28;20215;-58
2021/06/08 10:39:11;;;;;;;22.85;20.73;;;;;;;;;;5000024;28;20293;-58
2021/06/08 10:41:40;;;;;;;26.02;23.60;;;;;;;;;;5001030;28;20279;-57
2021/06/08 10:44:10;;;;;;;27.35;24.75;;;;;;;;;;4998116;28;20191;-57
2021/06/08 10:46:43;;;;;;;26.90;24.17;;;;;;;;;;4981017;28;20203;-57
2021/06/08 10:49:09;;;;;;;25.75;23.33;;;;;;;;;;4984437;28;20199;-56
2021/06/08 10:51:38;;;;;;;25.48;22.80;;;;;;;;;;5001723;28;20195;-56
2021/06/08 10:54:20;;;;;;;25.52;23.00;;;;;;;;;;5004749;28;20210;-56
2021/06/08 10:57:02;;;;;;;25.05;22.45;;;;;;;;;;4999085;28;20218;-58
2021/06/08 10:59:39;;;;;;;23.60;21.35;;;;;;;;;;5006065;28;20215;-57
2021/06/08 11:02:06;;;;;;;23.80;21.40;;;;;;;;;;5006363;28;20192;-57
2021/06/08 11:04:50;;;;;;;25.92;23.38;;;;;;;;;;5006562;28;20273;-58
2021/06/08 11:07:35;;;;;;;24.80;22.30;;;;;;;;;;5006437;28;20214;-57
2021/06/08 11:10:02;;;;;;;24.73;22.40;;;;;;;;;;5007133;28;20214;-57
2021/06/08 11:12:32;;;;;;;24.30;21.85;;;;;;;;;;4990472;28;20202;-57
2021/06/08 11:14:58;;;;;;;24.98;22.33;;;;;;;;;;5002045;28;20730;-57
2021/06/08 11:17:31;;;;;;;22.27;20.17;;;;;;;;;;5003956;28;20302;-57
2021/06/08 11:20:05;;;;;;;21.25;19.35;;;;;;;;;;5002683;28;20195;-57
2021/06/08 11:22:33;;;;;;;21.60;19.70;;;;;;;;;;4998790;28;20222;-58
2021/06/08 11:25:02;;;;;;;21.67;19.48;;;;;;;;;;5001966;28;20191;-58
2021/06/08 11:28:04;;;;;;;22.85;20.75;;;;;;;;;;5007999;28;20254;-58
2021/06/08 11:30:34;;;;;;;21.45;19.40;;;;;;;;;;4938534;28;20241;-57
2021/06/08 11:33:06;;;;;;;23.65;21.35;;;;;;;;;;4986857;28;20574;-57
2021/06/08 11:35:40;;;;;;;23.17;21.00;;;;;;;;;;5004272;28;20758;-58
2021/06/08 11:38:17;;;;;;;21.70;19.55;;;;;;;;;;5006748;28;20262;-57
2021/06/08 11:40:44;;;;;;;21.02;18.90;;;;;;;;;;5002742;28;20268;-57
2021/06/08 11:43:13;;;;;;;19.92;17.98;;;;;;;;;;4986061;28;20222;-57
2021/06/08 11:46:06;;;;;;;18.92;17.13;;;;;;;;;;4982997;28;20244;-58
2021/06/08 11:49:05;;;;;;;20.73;18.83;;;;;;;;;;5012040;28;20245;-57
2021/06/08 11:51:40;;;;;;;19.52;17.80;;;;;;;;;;5001539;28;20200;-57
2021/06/08 11:54:13;;;;;;;18.13;16.33;;;;;;;;;;5006219;28;20233;-58
2021/06/08 11:56:49;;;;;;;20.17;18.25;;;;;;;;;;5001199;28;20242;-57
2021/06/08 11:59:18;;;;;;;21.40;19.55;;;;;;;;;;5002396;28;20336;-58
2021/06/08 12:01:47;;;;;;;19.20;17.40;;;;;;;;;;5006874;28;20246;-59
2021/06/08 12:04:13;;;;;;;18.23;16.50;;;;;;;;;;4989630;28;20179;-56
2021/06/08 12:07:00;;;;;;;20.90;18.77;;;;;;;;;;5002838;28;20263;-58
2021/06/08 12:09:29;;;;;;;20.40;18.40;;;;;;;;;;5005036;28;20187;-57
2021/06/08 12:11:56;;;;;;;19.58;17.67;;;;;;;;;;5004171;28;20279;-57
2021/06/08 12:14:27;;;;;;;21.70;19.70;;;;;;;;;;4998517;28;20203;-58
2021/06/08 12:16:57;;;;;;;21.40;19.17;;;;;;;;;;5001887;28;20596;-58
2021/06/08 12:19:34;;;;;;;19.92;17.92;;;;;;;;;;4999341;28;20858;-57
2021/06/08 12:22:16;;;;;;;21.85;19.77;;;;;;;;;;5000140;28;20278;-57
2021/06/08 12:24:55;;;;;;;20.95;18.75;;;;;;;;;;5004889;28;20245;-57
2021/06/08 12:27:35;;;;;;;20.05;18.15;;;;;;;;;;4999859;28;20209;-58
2021/06/08 12:30:07;;;;;;;21.38;19.25;;;;;;;;;;5000784;28;20195;-58
2021/06/08 12:32:35;;;;;;;21.58;19.40;;;;;;;;;;5005879;28;20246;-57
2021/06/08 12:35:03;;;;;;;20.23;18.13;;;;;;;;;;4982814;28;20247;-58
2021/06/08 12:37:33;;;;;;;19.95;17.98;;;;;;;;;;4984573;28;20314;-58
2021/06/08 12:39:59;;;;;;;21.00;18.95;;;;;;;;;;5002928;28;20198;-57
2021/06/08 12:42:25;;;;;;;21.17;19.08;;;;;;;;;;5006406;28;20210;-58
2021/06/08 12:44:54;;;;;;;22.13;19.83;;;;;;;;;;4991773;28;20259;-57
2021/06/08 12:47:26;;;;;;;22.08;19.10;;;;;;;;;;4981357;28;20580;-57
2021/06/08 12:49:55;;;;;;;17.35;15.75;;;;;;;;;;4998868;28;20198;-56
2021/06/08 12:52:22;;;;;;;19.20;17.38;;;;;;;;;;4998642;28;20233;-57
2021/06/08 12:54:50;;;;;;;21.70;19.58;;;;;;;;;;4981999;28;20262;-59
2021/06/08 12:57:31;;;;;;;21.30;19.15;;;;;;;;;;4997649;28;20215;-58
2021/06/08 13:00:02;;;;;;;23.80;21.15;;;;;;;;;;5004503;28;20317;-56
2021/06/08 13:02:34;;;;;;;19.35;17.05;;;;;;;;;;5002211;28;20247;-55
2021/06/08 13:05:03;;;;;;;19.30;17.40;;;;;;;;;;4979126;28;20222;-57
2021/06/08 13:07:34;;;;;;;21.30;19.20;;;;;;;;;;4997526;28;20269;-57
2021/06/08 13:10:06;;;;;;;21.20;19.30;;;;;;;;;;5004767;28;20194;-56
2021/06/08 13:12:42;;;;;;;19.08;17.30;;;;;;;;;;5004064;28;20188;-56
2021/06/08 13:15:12;;;;;;;19.13;17.27;;;;;;;;;;5008862;28;20194;-57
2021/06/08 13:17:45;;;;;;;18.50;16.60;;;;;;;;;;5004337;28;20645;-56
2021/06/08 13:20:27;;;;;;;19.05;17.05;;;;;;;;;;5001185;28;20200;-56
2021/06/08 13:22:55;;;;;;;17.00;15.30;;;;;;;;;;5004580;28;20199;-58
2021/06/08 13:25:25;;;;;;;16.83;15.00;;;;;;;;;;5008948;28;20183;-56
2021/06/08 13:27:53;;;;;;;18.23;16.35;;;;;;;;;;5006829;28;20215;-58
2021/06/08 13:30:25;;;;;;;21.35;19.25;;;;;;;;;;4990146;28;20706;-56
2021/06/08 13:32:57;;;;;;;19.33;17.52;;;;;;;;;;5008422;28;20528;-57
2021/06/08 13:35:23;;;;;;;16.15;14.57;;;;;;;;;;5005301;28;20191;-57
2021/06/08 13:38:00;;;;;;;18.90;17.00;;;;;;;;;;5012255;28;21532;-57
2021/06/08 13:40:37;;;;;;;18.95;17.15;;;;;;;;;;4991943;28;20252;-57
2021/06/08 13:43:11;;;;;;;19.27;17.30;;;;;;;;;;5007446;28;20213;-55
2021/06/08 13:45:47;;;;;;;16.95;15.35;;;;;;;;;;5007202;28;20266;-56
2021/06/08 13:48:23;;;;;;;20.13;18.00;;;;;;;;;;4989066;28;20694;-56
2021/06/08 13:51:08;;;;;;;18.73;16.90;;;;;;;;;;5000759;28;20215;-57
2021/06/08 13:53:36;;;;;;;20.65;17.60;;;;;;;;;;5009447;28;20274;-56
2021/06/08 13:56:09;;;;;;;21.75;16.65;;;;;;;;;;5005533;28;20219;-57
2021/06/08 14:01:26;;;;;;;18.08;16.27;;;;;;;;;;5004295;28;20246;-57
2021/06/08 14:04:22;;;;;;;19.48;17.48;;;;;;;;;;5007703;28;20182;-57
2021/06/08 14:06:57;;;;;;;16.52;14.85;;;;;;;;;;4999036;28;20261;-57
2021/06/08 14:09:37;;;;;;;17.13;14.48;;;;;;;;;;5007411;28;20183;-56
2021/06/08 14:12:05;;;;;;;23.77;18.23;;;;;;;;;;5003547;28;20195;-57
2021/06/08 14:14:32;;;;;;;19.73;17.27;;;;;;;;;;5007768;28;20191;-56
2021/06/08 14:17:21;;;;;;;18.92;16.40;;;;;;;;;;5006461;28;20694;-55
2021/06/08 14:19:53;;;;;;;19.92;17.85;;;;;;;;;;4982239;28;20858;-56
2021/06/08 14:22:18;;;;;;;20.75;16.73;;;;;;;;;;5008039;28;20659;-57
2021/06/08 14:24:44;;;;;;;18.35;16.55;;;;;;;;;;5001719;28;20203;-56
2021/06/08 14:27:14;;;;;;;18.92;16.98;;;;;;;;;;5006115;28;20702;-57
2021/06/08 14:29:46;;;;;;;19.77;17.70;;;;;;;;;;4989329;28;20192;-57
2021/06/08 14:32:13;;;;;;;19.73;17.50;;;;;;;;;;4991105;28;20175;-55
2021/06/08 14:34:39;;;;;;;19.17;17.10;;;;;;;;;;4986247;28;20221;-57
2021/06/08 14:37:07;;;;;;;19.98;17.85;;;;;;;;;;4982972;28;20212;-57
2021/06/08 14:39:32;;;;;;;22.95;18.45;;;;;;;;;;5004791;28;20194;-57
2021/06/08 14:42:02;;;;;;;20.10;18.10;;;;;;;;;;5007594;28;20191;-57